sensor_id;sensor_type;location;lat;lon;timestamp;pressure;altitude;pressure_sealevel;temperature;humidity
5814;BME280;2933;52.302;8.134;2024-03-06T00:03:05;101028.34;;;5.22;85.94
5814;BME280;2933;52.302;8.134;2024-03-06T00:08:07;101031.31;;;5.26;86.00
5814;BME280;2933;52.302;8.134;2024-03-06T00:13:08;101035.69;;;5.15;86.04
5814;BME280;2933;52.302;8.134;2024-03-06T00:18:11;101042.97;;;5.03;86.78
5814;BME280;2933;52.302;8.134;2024-03-06T00:23:13;101039.44;;;5.14;86.12
5814;BME280;2933;52.302;8.134;2024-03-06T00:28:15;101045.16;;;5.06;87.91
5814;BME280;2933;52.302;8.134;2024-03-06T00:33:18;101045.59;;;4.98;87.74
5814;BME280;2933;52.302;8.134;2024-03-06T00:38:19;101051.53;;;5.05;87.32
5814;BME280;2933;52.302;8.134;2024-03-06T00:43:21;101051.53;;;5.05;87.39
5814;BME280;2933;52.302;8.134;2024-03-06T00:48:24;101055.88;;;5.11;87.02
5814;BME280;2933;52.302;8.134;2024-03-06T00:53:26;101059.59;;;5.10;87.17
5814;BME280;2933;52.302;8.134;2024-03-06T00:58:28;101052.50;;;4.99;87.18
5814;BME280;2933;52.302;8.134;2024-03-06T01:03:31;101063.34;;;4.93;87.22
5814;BME280;2933;52.302;8.134;2024-03-06T01:08:33;101069.28;;;5.00;87.74
5814;BME280;2933;52.302;8.134;2024-03-06T01:13:34;101065.03;;;4.99;86.45
5814;BME280;2933;52.302;8.134;2024-03-06T01:18:37;101073.31;;;5.02;86.78
5814;BME280;2933;52.302;8.134;2024-03-06T01:23:40;101077.16;;;5.11;86.38
5814;BME280;2933;52.302;8.134;2024-03-06T01:28:42;101079.22;;;5.04;86.53
5814;BME280;2933;52.302;8.134;2024-03-06T01:33:45;101089.78;;;4.99;85.64
5814;BME280;2933;52.302;8.134;2024-03-06T01:38:46;101097.69;;;4.94;85.88
5814;BME280;2933;52.302;8.134;2024-03-06T01:43:48;101102.19;;;4.94;85.96
5814;BME280;2933;52.302;8.134;2024-03-06T01:48:51;101117.19;;;4.83;85.55
5814;BME280;2933;52.302;8.134;2024-03-06T01:53:53;101117.84;;;4.90;85.51
5814;BME280;2933;52.302;8.134;2024-03-06T01:58:56;101116.78;;;4.91;85.58
5814;BME280;2933;52.302;8.134;2024-03-06T02:03:59;101122.13;;;4.91;84.93
5814;BME280;2933;52.302;8.134;2024-03-06T02:09:01;101121.16;;;4.81;84.53
5814;BME280;2933;52.302;8.134;2024-03-06T02:14:04;101121.06;;;4.76;84.29
5814;BME280;2933;52.302;8.134;2024-03-06T02:19:11;101123.81;;;4.97;83.55
5814;BME280;2933;52.302;8.134;2024-03-06T02:24:14;101117.13;;;4.78;83.81
5814;BME280;2933;52.302;8.134;2024-03-06T02:29:16;101124.63;;;4.81;83.34
5814;BME280;2933;52.302;8.134;2024-03-06T02:34:18;101130.91;;;4.75;84.21
5814;BME280;2933;52.302;8.134;2024-03-06T02:39:21;101134.47;;;4.81;83.76
5814;BME280;2933;52.302;8.134;2024-03-06T02:44:23;101136.94;;;4.87;83.67
5814;BME280;2933;52.302;8.134;2024-03-06T02:49:25;101130.91;;;4.75;83.49
5814;BME280;2933;52.302;8.134;2024-03-06T02:54:28;101128.72;;;4.72;82.80
5814;BME280;2933;52.302;8.134;2024-03-06T02:59:30;101126.56;;;4.86;82.25
5814;BME280;2933;52.302;8.134;2024-03-06T03:04:32;101131.81;;;4.81;82.94
5814;BME280;2933;52.302;8.134;2024-03-06T03:09:35;101124.53;;;4.76;82.30
5814;BME280;2933;52.302;8.134;2024-03-06T03:14:37;101128.16;;;4.70;81.55
5814;BME280;2933;52.302;8.134;2024-03-06T03:19:41;101139.53;;;4.66;82.18
5814;BME280;2933;52.302;8.134;2024-03-06T03:24:44;101133.97;;;4.67;82.29
5814;BME280;2933;52.302;8.134;2024-03-06T03:29:45;101151.06;;;4.71;82.14
5814;BME280;2933;52.302;8.134;2024-03-06T03:34:47;101151.47;;;4.63;82.27
5814;BME280;2933;52.302;8.134;2024-03-06T03:39:52;101153.31;;;4.63;82.00
5814;BME280;2933;52.302;8.134;2024-03-06T03:44:53;101155.41;;;4.61;81.29
5814;BME280;2933;52.302;8.134;2024-03-06T03:49:55;101157.19;;;4.55;81.41
5814;BME280;2933;52.302;8.134;2024-03-06T03:54:59;101159.09;;;4.43;81.48
5814;BME280;2933;52.302;8.134;2024-03-06T04:00:01;101162.63;;;4.49;81.38
5814;BME280;2933;52.302;8.134;2024-03-06T04:05:03;101167.91;;;4.60;81.92
5814;BME280;2933;52.302;8.134;2024-03-06T04:10:07;101167.31;;;4.58;81.10
5814;BME280;2933;52.302;8.134;2024-03-06T04:15:11;101175.06;;;4.60;81.04
5814;BME280;2933;52.302;8.134;2024-03-06T04:20:13;101174.34;;;4.64;80.97
5814;BME280;2933;52.302;8.134;2024-03-06T04:25:17;101180.16;;;4.61;81.57
5814;BME280;2933;52.302;8.134;2024-03-06T04:30:19;101190.25;;;4.59;81.32
5814;BME280;2933;52.302;8.134;2024-03-06T04:35:21;101195.25;;;4.44;81.59
5814;BME280;2933;52.302;8.134;2024-03-06T04:40:24;101200.78;;;4.54;81.62
5814;BME280;2933;52.302;8.134;2024-03-06T04:45:26;101200.00;;;4.42;82.11
5814;BME280;2933;52.302;8.134;2024-03-06T04:50:28;101211.91;;;4.51;80.84
5814;BME280;2933;52.302;8.134;2024-03-06T04:55:32;101227.94;;;4.56;81.69
5814;BME280;2933;52.302;8.134;2024-03-06T05:00:34;101225.78;;;4.42;81.33
5814;BME280;2933;52.302;8.134;2024-03-06T05:05:35;101220.00;;;4.45;81.91
5814;BME280;2933;52.302;8.134;2024-03-06T05:10:40;101232.44;;;4.56;81.88
5814;BME280;2933;52.302;8.134;2024-03-06T05:15:41;101227.28;;;4.49;82.17
5814;BME280;2933;52.302;8.134;2024-03-06T05:20:43;101232.94;;;4.53;82.39
5814;BME280;2933;52.302;8.134;2024-03-06T05:25:47;101233.44;;;4.38;81.88
5814;BME280;2933;52.302;8.134;2024-03-06T05:30:48;101233.88;;;4.47;82.85
5814;BME280;2933;52.302;8.134;2024-03-06T05:35:50;101241.28;;;4.45;82.72
5814;BME280;2933;52.302;8.134;2024-03-06T05:40:53;101239.81;;;4.37;82.25
5814;BME280;2933;52.302;8.134;2024-03-06T05:45:55;101251.59;;;4.41;83.46
5814;BME280;2933;52.302;8.134;2024-03-06T05:50:56;101262.81;;;4.31;83.29
5814;BME280;2933;52.302;8.134;2024-03-06T05:56:00;101270.09;;;4.36;83.28
5814;BME280;2933;52.302;8.134;2024-03-06T06:01:01;101277.25;;;4.47;83.42
5814;BME280;2933;52.302;8.134;2024-03-06T06:06:05;101281.63;;;4.53;82.79
5814;BME280;2933;52.302;8.134;2024-03-06T06:11:08;101294.34;;;4.51;83.50
5814;BME280;2933;52.302;8.134;2024-03-06T06:16:09;101289.47;;;4.48;83.15
5814;BME280;2933;52.302;8.134;2024-03-06T06:21:11;101296.44;;;4.49;83.02
5814;BME280;2933;52.302;8.134;2024-03-06T06:26:14;101309.03;;;4.42;83.71
5814;BME280;2933;52.302;8.134;2024-03-06T06:31:16;101310.31;;;4.51;83.51
5814;BME280;2933;52.302;8.134;2024-03-06T06:36:17;101318.38;;;4.56;83.28
5814;BME280;2933;52.302;8.134;2024-03-06T06:41:21;101329.03;;;4.45;84.33
5814;BME280;2933;52.302;8.134;2024-03-06T06:46:23;101339.44;;;4.46;84.24
5814;BME280;2933;52.302;8.134;2024-03-06T06:51:25;101350.66;;;4.48;83.99
5814;BME280;2933;52.302;8.134;2024-03-06T06:56:28;101361.41;;;4.53;84.39
5814;BME280;2933;52.302;8.134;2024-03-06T07:01:30;101366.00;;;4.58;84.64
5814;BME280;2933;52.302;8.134;2024-03-06T07:06:33;101369.81;;;4.62;83.95
5814;BME280;2933;52.302;8.134;2024-03-06T07:11:36;101377.13;;;4.66;83.94
5814;BME280;2933;52.302;8.134;2024-03-06T07:16:41;101378.06;;;4.60;84.73
5814;BME280;2933;52.302;8.134;2024-03-06T07:21:43;101378.75;;;4.67;84.53
5814;BME280;2933;52.302;8.134;2024-03-06T07:26:47;101388.56;;;4.67;84.72
5814;BME280;2933;52.302;8.134;2024-03-06T07:31:48;101395.16;;;4.64;84.31
5814;BME280;2933;52.302;8.134;2024-03-06T07:36:50;101401.53;;;4.52;85.73
5814;BME280;2933;52.302;8.134;2024-03-06T07:41:53;101402.34;;;4.52;84.79
5814;BME280;2933;52.302;8.134;2024-03-06T07:46:55;101405.25;;;4.51;85.39
5814;BME280;2933;52.302;8.134;2024-03-06T07:51:59;101413.78;;;4.64;85.53
5814;BME280;2933;52.302;8.134;2024-03-06T07:57:03;101428.34;;;4.62;84.90
5814;BME280;2933;52.302;8.134;2024-03-06T08:02:04;101429.03;;;4.80;85.47
5814;BME280;2933;52.302;8.134;2024-03-06T08:07:06;101429.97;;;4.74;84.78
5814;BME280;2933;52.302;8.134;2024-03-06T08:12:11;101435.19;;;4.69;85.35
5814;BME280;2933;52.302;8.134;2024-03-06T08:17:12;101442.91;;;4.82;84.33
5814;BME280;2933;52.302;8.134;2024-03-06T08:22:14;101453.41;;;5.00;84.04
5814;BME280;2933;52.302;8.134;2024-03-06T08:27:17;101454.13;;;4.84;84.14
5814;BME280;2933;52.302;8.134;2024-03-06T08:32:19;101456.94;;;4.66;85.42
5814;BME280;2933;52.302;8.134;2024-03-06T08:37:21;101474.53;;;4.67;85.39
5814;BME280;2933;52.302;8.134;2024-03-06T08:42:24;101472.91;;;4.66;85.73
5814;BME280;2933;52.302;8.134;2024-03-06T08:47:25;101479.94;;;4.72;85.00
5814;BME280;2933;52.302;8.134;2024-03-06T08:52:27;101486.91;;;4.85;85.71
5814;BME280;2933;52.302;8.134;2024-03-06T08:57:30;101490.69;;;5.00;84.33
5814;BME280;2933;52.302;8.134;2024-03-06T09:02:32;101493.13;;;5.02;83.88
5814;BME280;2933;52.302;8.134;2024-03-06T09:07:33;101496.00;;;5.00;84.73
5814;BME280;2933;52.302;8.134;2024-03-06T09:12:40;101497.84;;;5.11;84.54
5814;BME280;2933;52.302;8.134;2024-03-06T09:17:42;101499.47;;;5.12;84.72
5814;BME280;2933;52.302;8.134;2024-03-06T09:22:45;101502.44;;;5.28;84.16
5814;BME280;2933;52.302;8.134;2024-03-06T09:27:48;101515.28;;;5.19;83.02
5814;BME280;2933;52.302;8.134;2024-03-06T09:32:50;101520.53;;;5.14;84.10
5814;BME280;2933;52.302;8.134;2024-03-06T09:37:51;101531.50;;;5.17;84.68
5814;BME280;2933;52.302;8.134;2024-03-06T09:42:55;101538.84;;;5.10;85.70
5814;BME280;2933;52.302;8.134;2024-03-06T09:47:57;101540.88;;;5.32;84.85
5814;BME280;2933;52.302;8.134;2024-03-06T09:52:58;101540.53;;;5.28;84.70
5814;BME280;2933;52.302;8.134;2024-03-06T09:58:03;101554.22;;;5.20;84.18
5814;BME280;2933;52.302;8.134;2024-03-06T10:03:05;101556.03;;;5.31;83.98
5814;BME280;2933;52.302;8.134;2024-03-06T10:08:09;101560.31;;;5.44;84.06
5814;BME280;2933;52.302;8.134;2024-03-06T10:13:12;101564.03;;;5.43;83.96
5814;BME280;2933;52.302;8.134;2024-03-06T10:18:14;101567.81;;;5.58;83.97
5814;BME280;2933;52.302;8.134;2024-03-06T10:23:18;101573.06;;;5.42;83.87
5814;BME280;2933;52.302;8.134;2024-03-06T10:28:22;101566.75;;;5.59;84.34
5814;BME280;2933;52.302;8.134;2024-03-06T10:33:24;101570.72;;;5.57;83.45
5814;BME280;2933;52.302;8.134;2024-03-06T10:38:33;101576.72;;;5.64;83.41
5814;BME280;2933;52.302;8.134;2024-03-06T10:43:39;101578.63;;;5.91;83.04
5814;BME280;2933;52.302;8.134;2024-03-06T10:48:42;101584.91;;;5.85;83.03
5814;BME280;2933;52.302;8.134;2024-03-06T10:53:45;101587.06;;;6.00;82.15
5814;BME280;2933;52.302;8.134;2024-03-06T10:58:50;101589.53;;;5.90;81.52
5814;BME280;2933;52.302;8.134;2024-03-06T11:03:52;101593.81;;;6.19;81.67
5814;BME280;2933;52.302;8.134;2024-03-06T11:08:54;101589.81;;;6.05;81.14
5814;BME280;2933;52.302;8.134;2024-03-06T11:14:00;101597.16;;;5.98;80.43
5814;BME280;2933;52.302;8.134;2024-03-06T11:19:05;101598.88;;;6.04;81.78
5814;BME280;2933;52.302;8.134;2024-03-06T11:24:15;101597.94;;;6.27;81.14
5814;BME280;2933;52.302;8.134;2024-03-06T11:29:19;101604.03;;;6.22;81.47
5814;BME280;2933;52.302;8.134;2024-03-06T11:34:21;101615.72;;;6.21;80.08
5814;BME280;2933;52.302;8.134;2024-03-06T11:39:28;101613.13;;;6.09;81.21
5814;BME280;2933;52.302;8.134;2024-03-06T11:44:32;101620.25;;;6.21;81.41
5814;BME280;2933;52.302;8.134;2024-03-06T11:49:34;101619.34;;;6.15;81.31
5814;BME280;2933;52.302;8.134;2024-03-06T11:54:37;101625.63;;;6.37;80.53
5814;BME280;2933;52.302;8.134;2024-03-06T11:59:41;101624.31;;;6.23;81.56
5814;BME280;2933;52.302;8.134;2024-03-06T12:04:42;101629.75;;;6.28;80.91
5814;BME280;2933;52.302;8.134;2024-03-06T12:09:44;101632.41;;;6.28;80.24
5814;BME280;2933;52.302;8.134;2024-03-06T12:14:57;101640.81;;;6.37;80.72
5814;BME280;2933;52.302;8.134;2024-03-06T12:20:00;101643.22;;;6.50;80.50
5814;BME280;2933;52.302;8.134;2024-03-06T12:25:06;101640.03;;;6.36;80.18
5814;BME280;2933;52.302;8.134;2024-03-06T12:30:13;101645.53;;;6.46;80.22
5814;BME280;2933;52.302;8.134;2024-03-06T12:35:23;101641.47;;;6.72;80.12
5814;BME280;2933;52.302;8.134;2024-03-06T12:40:27;101644.44;;;6.59;79.68
5814;BME280;2933;52.302;8.134;2024-03-06T12:45:30;101646.47;;;6.68;79.13
5814;BME280;2933;52.302;8.134;2024-03-06T12:50:32;101644.19;;;6.60;79.62
5814;BME280;2933;52.302;8.134;2024-03-06T12:55:34;101639.19;;;6.64;79.10
5814;BME280;2933;52.302;8.134;2024-03-06T13:00:37;101639.84;;;6.71;79.52
5814;BME280;2933;52.302;8.134;2024-03-06T13:05:39;101639.19;;;6.80;79.63
5814;BME280;2933;52.302;8.134;2024-03-06T13:10:40;101640.72;;;6.76;79.23
5814;BME280;2933;52.302;8.134;2024-03-06T13:15:43;101635.56;;;6.86;79.36
5814;BME280;2933;52.302;8.134;2024-03-06T13:20:48;101640.25;;;6.96;78.08
5814;BME280;2933;52.302;8.134;2024-03-06T13:25:49;101633.88;;;6.97;78.08
5814;BME280;2933;52.302;8.134;2024-03-06T13:30:52;101642.44;;;7.16;78.13
5814;BME280;2933;52.302;8.134;2024-03-06T13:35:54;101648.00;;;7.31;77.12
5814;BME280;2933;52.302;8.134;2024-03-06T13:40:56;101652.00;;;7.12;78.07
5814;BME280;2933;52.302;8.134;2024-03-06T13:45:59;101654.97;;;6.98;77.76
5814;BME280;2933;52.302;8.134;2024-03-06T13:51:01;101661.22;;;7.04;77.33
5814;BME280;2933;52.302;8.134;2024-03-06T13:56:03;101658.06;;;7.07;77.77
5814;BME280;2933;52.302;8.134;2024-03-06T14:01:07;101661.22;;;7.21;77.20
5814;BME280;2933;52.302;8.134;2024-03-06T14:06:09;101654.84;;;7.22;77.26
5814;BME280;2933;52.302;8.134;2024-03-06T14:11:10;101659.88;;;7.40;76.77
5814;BME280;2933;52.302;8.134;2024-03-06T14:16:14;101661.66;;;7.51;76.48
5814;BME280;2933;52.302;8.134;2024-03-06T14:21:16;101664.19;;;7.24;76.38
5814;BME280;2933;52.302;8.134;2024-03-06T14:26:17;101666.31;;;7.22;77.16
5814;BME280;2933;52.302;8.134;2024-03-06T14:31:20;101672.31;;;7.13;76.81
5814;BME280;2933;52.302;8.134;2024-03-06T14:36:23;101673.78;;;7.04;77.63
5814;BME280;2933;52.302;8.134;2024-03-06T14:41:25;101673.22;;;7.02;77.58
5814;BME280;2933;52.302;8.134;2024-03-06T14:46:28;101676.53;;;7.09;77.09
5814;BME280;2933;52.302;8.134;2024-03-06T14:51:30;101678.16;;;7.10;77.16
5814;BME280;2933;52.302;8.134;2024-03-06T14:56:32;101669.63;;;7.13;76.73
5814;BME280;2933;52.302;8.134;2024-03-06T15:01:35;101670.53;;;7.18;76.66
5814;BME280;2933;52.302;8.134;2024-03-06T15:06:37;101678.59;;;7.40;76.95
5814;BME280;2933;52.302;8.134;2024-03-06T15:11:39;101679.09;;;7.37;76.42
5814;BME280;2933;52.302;8.134;2024-03-06T15:16:42;101685.75;;;7.34;76.26
5814;BME280;2933;52.302;8.134;2024-03-06T15:21:44;101687.38;;;7.35;76.20
5814;BME280;2933;52.302;8.134;2024-03-06T15:26:46;101681.22;;;7.35;76.12
5814;BME280;2933;52.302;8.134;2024-03-06T15:31:49;101683.25;;;7.28;75.70
5814;BME280;2933;52.302;8.134;2024-03-06T15:36:51;101689.78;;;7.20;76.21
5814;BME280;2933;52.302;8.134;2024-03-06T15:41:52;101692.31;;;7.27;76.44
5814;BME280;2933;52.302;8.134;2024-03-06T15:46:55;101691.66;;;7.36;76.02
5814;BME280;2933;52.302;8.134;2024-03-06T15:51:57;101690.59;;;7.21;76.12
5814;BME280;2933;52.302;8.134;2024-03-06T15:56:59;101706.28;;;7.34;76.67
5814;BME280;2933;52.302;8.134;2024-03-06T16:02:02;101696.75;;;7.38;75.65
5814;BME280;2933;52.302;8.134;2024-03-06T16:07:04;101699.97;;;7.40;76.46
5814;BME280;2933;52.302;8.134;2024-03-06T16:12:07;101694.66;;;7.23;76.39
5814;BME280;2933;52.302;8.134;2024-03-06T16:17:10;101698.16;;;7.24;77.46
5814;BME280;2933;52.302;8.134;2024-03-06T16:22:12;101699.53;;;7.10;76.88
5814;BME280;2933;52.302;8.134;2024-03-06T16:27:14;101702.09;;;7.05;78.25
5814;BME280;2933;52.302;8.134;2024-03-06T16:32:17;101710.22;;;7.10;77.63
5814;BME280;2933;52.302;8.134;2024-03-06T16:37:18;101712.13;;;6.97;77.73
5814;BME280;2933;52.302;8.134;2024-03-06T16:42:20;101719.75;;;7.06;77.72
5814;BME280;2933;52.302;8.134;2024-03-06T16:47:23;101720.44;;;6.84;78.01
5814;BME280;2933;52.302;8.134;2024-03-06T16:52:25;101723.03;;;6.79;78.80
5814;BME280;2933;52.302;8.134;2024-03-06T16:57:26;101731.13;;;6.84;79.27
5814;BME280;2933;52.302;8.134;2024-03-06T17:02:29;101730.53;;;6.82;79.20
5814;BME280;2933;52.302;8.134;2024-03-06T17:07:32;101737.34;;;6.73;78.79
5814;BME280;2933;52.302;8.134;2024-03-06T17:12:34;101748.38;;;6.93;80.08
5814;BME280;2933;52.302;8.134;2024-03-06T17:17:37;101745.91;;;7.04;79.59
5814;BME280;2933;52.302;8.134;2024-03-06T17:22:38;101748.75;;;7.14;80.00
5814;BME280;2933;52.302;8.134;2024-03-06T17:27:41;101755.44;;;7.00;79.01
5814;BME280;2933;52.302;8.134;2024-03-06T17:32:44;101760.50;;;6.84;78.59
5814;BME280;2933;52.302;8.134;2024-03-06T17:37:46;101753.22;;;6.96;79.63
5814;BME280;2933;52.302;8.134;2024-03-06T17:42:48;101762.31;;;6.95;78.92
5814;BME280;2933;52.302;8.134;2024-03-06T17:47:52;101777.00;;;6.81;79.48
5814;BME280;2933;52.302;8.134;2024-03-06T17:52:53;101776.19;;;6.81;79.93
5814;BME280;2933;52.302;8.134;2024-03-06T17:57:55;101778.81;;;6.92;79.72
5814;BME280;2933;52.302;8.134;2024-03-06T18:02:59;101776.81;;;6.71;80.12
5814;BME280;2933;52.302;8.134;2024-03-06T18:08:00;101784.50;;;6.56;80.76
5814;BME280;2933;52.302;8.134;2024-03-06T18:13:02;101792.88;;;6.48;81.32
5814;BME280;2933;52.302;8.134;2024-03-06T18:18:06;101795.41;;;6.55;81.58
5814;BME280;2933;52.302;8.134;2024-03-06T18:23:07;101799.59;;;6.51;81.50
5814;BME280;2933;52.302;8.134;2024-03-06T18:28:11;101804.13;;;6.50;81.20
5814;BME280;2933;52.302;8.134;2024-03-06T18:33:15;101791.72;;;6.44;81.22
5814;BME280;2933;52.302;8.134;2024-03-06T18:38:16;101803.97;;;6.68;81.05
5814;BME280;2933;52.302;8.134;2024-03-06T18:43:18;101801.22;;;6.63;80.72
5814;BME280;2933;52.302;8.134;2024-03-06T18:48:21;101810.69;;;6.71;80.28
5814;BME280;2933;52.302;8.134;2024-03-06T18:53:23;101811.84;;;6.75;80.17
5814;BME280;2933;52.302;8.134;2024-03-06T18:58:39;101806.25;;;6.76;80.48
5814;BME280;2933;52.302;8.134;2024-03-06T19:03:45;101808.03;;;6.71;79.64
5814;BME280;2933;52.302;8.134;2024-03-06T19:08:52;101809.66;;;6.72;80.51
5814;BME280;2933;52.302;8.134;2024-03-06T19:13:54;101811.75;;;6.70;80.24
5814;BME280;2933;52.302;8.134;2024-03-06T19:18:57;101819.00;;;6.58;80.16
5814;BME280;2933;52.302;8.134;2024-03-06T19:23:59;101819.69;;;6.53;80.74
5814;BME280;2933;52.302;8.134;2024-03-06T19:29:01;101819.56;;;6.48;81.31
5814;BME280;2933;52.302;8.134;2024-03-06T19:34:04;101817.97;;;6.47;81.43
5814;BME280;2933;52.302;8.134;2024-03-06T19:39:06;101825.25;;;6.52;81.42
5814;BME280;2933;52.302;8.134;2024-03-06T19:44:09;101823.84;;;6.61;81.23
5814;BME280;2933;52.302;8.134;2024-03-06T19:49:12;101824.41;;;6.63;81.55
5814;BME280;2933;52.302;8.134;2024-03-06T19:54:13;101831.03;;;6.60;81.06
5814;BME280;2933;52.302;8.134;2024-03-06T19:59:15;101825.13;;;6.58;80.97
5814;BME280;2933;52.302;8.134;2024-03-06T20:04:18;101830.25;;;6.48;80.26
5814;BME280;2933;52.302;8.134;2024-03-06T20:09:20;101825.97;;;6.47;79.95
5814;BME280;2933;52.302;8.134;2024-03-06T20:14:21;101822.13;;;6.43;79.94
5814;BME280;2933;52.302;8.134;2024-03-06T20:19:24;101830.44;;;6.58;81.10
5814;BME280;2933;52.302;8.134;2024-03-06T20:24:26;101830.31;;;6.65;80.53
5814;BME280;2933;52.302;8.134;2024-03-06T20:29:28;101824.75;;;6.66;80.59
5814;BME280;2933;52.302;8.134;2024-03-06T20:34:31;101832.53;;;6.56;79.01
5814;BME280;2933;52.302;8.134;2024-03-06T20:39:33;101829.56;;;6.41;78.57
5814;BME280;2933;52.302;8.134;2024-03-06T20:44:36;101841.88;;;6.42;78.39
5814;BME280;2933;52.302;8.134;2024-03-06T20:49:39;101838.41;;;6.42;78.65
5814;BME280;2933;52.302;8.134;2024-03-06T20:54:40;101837.00;;;6.39;78.87
5814;BME280;2933;52.302;8.134;2024-03-06T20:59:42;101844.69;;;6.24;79.23
5814;BME280;2933;52.302;8.134;2024-03-06T21:04:47;101840.84;;;6.32;78.82
5814;BME280;2933;52.302;8.134;2024-03-06T21:09:49;101847.31;;;6.13;79.18
5814;BME280;2933;52.302;8.134;2024-03-06T21:14:50;101841.06;;;6.19;79.50
5814;BME280;2933;52.302;8.134;2024-03-06T21:19:59;101841.78;;;6.14;79.60
5814;BME280;2933;52.302;8.134;2024-03-06T21:25:12;101843.53;;;6.20;79.85
5814;BME280;2933;52.302;8.134;2024-03-06T21:30:14;101856.28;;;6.18;79.42
5814;BME280;2933;52.302;8.134;2024-03-06T21:35:17;101851.63;;;6.02;79.84
5814;BME280;2933;52.302;8.134;2024-03-06T21:40:21;101849.31;;;5.94;79.83
5814;BME280;2933;52.302;8.134;2024-03-06T21:45:24;101858.06;;;5.83;80.08
5814;BME280;2933;52.302;8.134;2024-03-06T21:50:27;101855.72;;;5.75;80.22
5814;BME280;2933;52.302;8.134;2024-03-06T21:55:29;101861.06;;;5.75;79.56
5814;BME280;2933;52.302;8.134;2024-03-06T22:00:31;101861.06;;;5.63;80.62
5814;BME280;2933;52.302;8.134;2024-03-06T22:05:36;101856.06;;;5.67;79.94
5814;BME280;2933;52.302;8.134;2024-03-06T22:10:38;101871.47;;;5.65;79.97
5814;BME280;2933;52.302;8.134;2024-03-06T22:15:40;101873.75;;;5.50;80.34
5814;BME280;2933;52.302;8.134;2024-03-06T22:20:43;101874.41;;;5.34;81.20
5814;BME280;2933;52.302;8.134;2024-03-06T22:25:44;101870.34;;;5.31;80.11
5814;BME280;2933;52.302;8.134;2024-03-06T22:30:46;101879.88;;;5.09;80.47
5814;BME280;2933;52.302;8.134;2024-03-06T22:35:49;101876.41;;;5.08;80.67
5814;BME280;2933;52.302;8.134;2024-03-06T22:40:51;101880.34;;;4.88;79.94
5814;BME280;2933;52.302;8.134;2024-03-06T22:45:52;101873.13;;;4.77;80.54
5814;BME280;2933;52.302;8.134;2024-03-06T22:50:55;101867.63;;;4.72;79.44
5814;BME280;2933;52.302;8.134;2024-03-06T22:55:58;101871.28;;;4.59;79.61
5814;BME280;2933;52.302;8.134;2024-03-06T23:01:00;101871.63;;;4.45;80.17
5814;BME280;2933;52.302;8.134;2024-03-06T23:06:07;101873.16;;;4.34;80.50
5814;BME280;2933;52.302;8.134;2024-03-06T23:11:09;101877.00;;;4.38;80.42
5814;BME280;2933;52.302;8.134;2024-03-06T23:16:12;101872.53;;;4.14;79.96
5814;BME280;2933;52.302;8.134;2024-03-06T23:21:16;101878.44;;;4.16;79.79
5814;BME280;2933;52.302;8.134;2024-03-06T23:26:17;101875.69;;;4.29;79.08
5814;BME280;2933;52.302;8.134;2024-03-06T23:31:19;101879.28;;;4.16;79.17
5814;BME280;2933;52.302;8.134;2024-03-06T23:36:22;101885.69;;;4.09;79.49
5814;BME280;2933;52.302;8.134;2024-03-06T23:41:24;101878.41;;;3.98;78.86
5814;BME280;2933;52.302;8.134;2024-03-06T23:46:29;101887.25;;;3.92;79.70
5814;BME280;2933;52.302;8.134;2024-03-06T23:51:33;101882.03;;;3.79;79.39
5814;BME280;2933;52.302;8.134;2024-03-06T23:56:34;101882.69;;;3.74;79.64
